createdAt,value
2022-09-16T00:01:13.933Z,17.40
2022-09-16T00:03:48.372Z,17.31
2022-09-16T00:06:21.241Z,17.45
2022-09-16T00:08:49.872Z,17.03
2022-09-16T00:11:19.324Z,17.25
2022-09-16T00:13:48.352Z,17.07
2022-09-16T00:16:19.961Z,17.42
2022-09-16T00:18:49.876Z,17.39
2022-09-16T00:21:18.166Z,17.11
2022-09-16T00:23:47.040Z,17.10
2022-09-16T00:26:15.733Z,17.28
2022-09-16T00:28:44.289Z,17.09
2022-09-16T00:31:12.544Z,17.01
2022-09-16T00:33:40.763Z,17.10
2022-09-16T00:36:13.230Z,17.56
2022-09-16T00:38:42.075Z,17.34
2022-09-16T00:41:17.589Z,17.54
2022-09-16T00:43:55.380Z,17.75
2022-09-16T00:46:29.141Z,17.54
2022-09-16T00:48:58.324Z,17.30
2022-09-16T00:51:28.514Z,17.41
2022-09-16T00:54:00.378Z,17.40
2022-09-16T00:56:30.654Z,17.31
2022-09-16T00:59:03.570Z,17.41
2022-09-16T01:01:32.238Z,17.02
2022-09-16T01:04:03.186Z,17.20
2022-09-16T01:06:33.814Z,17.34
2022-09-16T01:09:02.427Z,16.87
2022-09-16T01:11:30.588Z,16.87
2022-09-16T01:14:19.642Z,17.07
2022-09-16T01:16:52.074Z,17.32
2022-09-16T01:19:34.577Z,17.45
2022-09-16T01:22:14.859Z,17.44
2022-09-16T01:24:50.754Z,17.41
2022-09-16T01:27:38.370Z,17.28
2022-09-16T01:33:18.008Z,17.27
2022-09-16T01:35:56.269Z,17.21
2022-09-16T01:38:34.893Z,17.24
2022-09-16T01:41:09.149Z,17.25
2022-09-16T01:43:46.290Z,17.20
2022-09-16T01:46:20.946Z,17.07
2022-09-16T01:48:55.558Z,17.02
2022-09-16T01:51:26.664Z,16.88
2022-09-16T01:54:04.196Z,17.04
2022-09-16T01:56:37.108Z,16.90
2022-09-16T01:59:09.530Z,16.82
2022-09-16T02:01:41.969Z,16.66
2022-09-16T02:04:15.213Z,16.74
2022-09-16T02:06:46.496Z,16.50
2022-09-16T02:09:16.571Z,16.40
2022-09-16T02:11:47.449Z,16.53
2022-09-16T02:14:18.394Z,16.52
2022-09-16T02:16:49.467Z,16.42
2022-09-16T02:19:22.296Z,16.47
2022-09-16T02:21:51.856Z,16.25
2022-09-16T02:24:22.307Z,16.30
2022-09-16T02:26:54.367Z,16.31
2022-09-16T02:29:24.915Z,16.27
2022-09-16T02:31:55.922Z,16.13
2022-09-16T02:34:27.094Z,16.92
2022-09-16T02:36:58.626Z,16.36
2022-09-16T02:39:30.203Z,16.25
2022-09-16T02:41:58.715Z,16.01
2022-09-16T02:54:19.191Z,16.64
2022-09-16T02:57:44.407Z,16.30
2022-09-16T03:00:51.995Z,16.34
2022-09-16T03:04:00.088Z,16.08
2022-09-16T03:07:16.643Z,15.89
2022-09-16T03:20:29.906Z,16.12
2022-09-16T03:24:13.362Z,16.20
2022-09-16T03:43:35.707Z,15.97
2022-09-16T03:47:38.089Z,15.92
2022-09-16T04:11:06.071Z,15.22
2022-09-16T04:11:58.047Z,15.41
2022-09-16T04:22:03.507Z,15.59
2022-09-16T04:33:13.480Z,15.61
2022-09-16T04:55:18.440Z,18.85
2022-09-16T05:02:45.062Z,19.71
2022-09-16T05:06:09.636Z,19.38
2022-09-16T05:09:38.741Z,19.08
2022-09-16T05:12:55.718Z,18.48
2022-09-16T05:15:35.849Z,18.66
2022-09-16T05:18:22.563Z,18.79
2022-09-16T05:21:30.639Z,19.46
2022-09-16T05:24:42.854Z,19.13
2022-09-16T05:27:19.256Z,18.91
2022-09-16T05:30:01.767Z,18.70
2022-09-16T05:33:25.502Z,18.84
2022-09-16T05:39:22.672Z,19.71
2022-09-16T05:42:28.355Z,21.32
2022-09-16T05:49:29.229Z,23.04
2022-09-16T06:00:41.400Z,22.34
2022-09-16T06:04:20.973Z,22.65
2022-09-16T06:16:27.256Z,22.61
2022-09-16T06:27:01.885Z,22.45
2022-09-16T06:30:36.082Z,21.81
2022-09-16T06:39:07.997Z,20.30
2022-09-16T06:42:01.476Z,19.80
2022-09-16T06:45:07.034Z,19.53
2022-09-16T06:49:47.196Z,19.95
2022-09-16T06:56:48.255Z,20.64
2022-09-16T06:59:20.668Z,20.08
2022-09-16T07:01:48.746Z,20.01
2022-09-16T07:04:17.658Z,19.84
2022-09-16T07:09:35.013Z,20.09
2022-09-16T07:12:05.300Z,20.68
2022-09-16T07:14:33.677Z,20.47
2022-09-16T07:17:03.219Z,20.49
2022-09-16T07:19:31.749Z,20.11
2022-09-16T07:21:59.849Z,19.95
2022-09-16T07:24:27.996Z,19.91
2022-09-16T07:26:56.366Z,19.84
2022-09-16T07:29:26.079Z,20.34
2022-09-16T07:31:54.582Z,20.41
2022-09-16T07:34:23.291Z,20.60
2022-09-16T07:36:51.521Z,20.59
2022-09-16T07:39:21.245Z,20.57
2022-09-16T07:41:50.215Z,20.04
2022-09-16T07:44:20.560Z,20.15
2022-09-16T07:46:51.443Z,20.15
2022-09-16T07:49:21.093Z,19.83
2022-09-16T07:51:49.489Z,19.64
2022-09-16T07:54:20.176Z,19.91
2022-09-16T07:56:48.836Z,20.42
2022-09-16T07:59:19.355Z,19.77
2022-09-16T08:01:51.212Z,19.78
2022-09-16T08:04:20.989Z,19.66
2022-09-16T08:06:49.699Z,20.06
2022-09-16T08:12:10.931Z,21.68
2022-09-16T08:14:39.467Z,22.63
2022-09-16T08:17:09.141Z,24.64
2022-09-16T08:19:38.563Z,25.66
2022-09-16T08:22:06.761Z,26.48
2022-09-16T08:24:35.390Z,26.73
2022-09-16T08:27:03.487Z,27.71
2022-09-16T08:29:31.689Z,28.96
2022-09-16T08:32:00.140Z,29.00
2022-09-16T08:34:29.741Z,29.09
2022-09-16T08:36:57.919Z,28.35
2022-09-16T08:39:26.284Z,27.35
2022-09-16T08:42:25.533Z,26.84
2022-09-16T08:45:00.427Z,25.62
2022-09-16T08:47:38.125Z,24.98
2022-09-16T08:50:16.519Z,24.54
2022-09-16T08:52:54.032Z,24.27
2022-09-16T08:55:31.770Z,24.47
2022-09-16T08:58:03.714Z,25.59
2022-09-16T09:00:32.320Z,26.63
2022-09-16T09:03:08.800Z,28.97
2022-09-16T09:05:46.640Z,30.93
2022-09-16T09:08:23.151Z,31.19
2022-09-16T09:10:53.833Z,30.47
2022-09-16T09:13:58.978Z,29.78
2022-09-16T09:16:36.789Z,28.35
2022-09-16T09:19:15.384Z,29.55
2022-09-16T09:21:50.204Z,31.27
2022-09-16T09:24:31.843Z,31.06
2022-09-16T09:27:04.947Z,29.59
2022-09-16T09:29:42.804Z,27.94
2022-09-16T09:32:19.772Z,26.68
2022-09-16T09:35:00.075Z,26.08
2022-09-16T09:37:45.070Z,25.79
2022-09-16T09:40:17.117Z,25.15
2022-09-16T09:42:50.075Z,24.53
2022-09-16T09:45:22.995Z,24.03
2022-09-16T09:47:54.165Z,23.44
2022-09-16T09:50:26.624Z,23.12
2022-09-16T09:53:02.793Z,23.47
2022-09-16T09:55:34.607Z,26.37
2022-09-16T09:58:17.235Z,30.74
2022-09-16T10:00:45.773Z,33.21
2022-09-16T10:03:16.712Z,34.42
2022-09-16T10:05:45.964Z,34.05
2022-09-16T10:08:20.497Z,34.15
2022-09-16T10:10:51.558Z,33.17
2022-09-16T10:13:20.733Z,32.04
2022-09-16T10:15:53.295Z,32.02
2022-09-16T10:18:27.142Z,31.56
2022-09-16T10:21:02.312Z,30.56
2022-09-16T10:23:32.494Z,28.99
2022-09-16T10:26:09.673Z,28.18
2022-09-16T10:28:38.175Z,26.59
2022-09-16T10:31:08.003Z,25.99
2022-09-16T10:33:38.389Z,25.12
2022-09-16T10:36:08.911Z,24.55
2022-09-16T10:38:41.234Z,24.34
2022-09-16T10:41:15.552Z,24.08
2022-09-16T10:43:49.212Z,24.12
2022-09-16T10:46:18.731Z,23.81
2022-09-16T10:48:47.443Z,23.67
2022-09-16T10:51:23.766Z,24.90
2022-09-16T10:53:57.964Z,27.11
2022-09-16T10:56:29.544Z,28.98
2022-09-16T10:59:06.240Z,30.26
2022-09-16T11:01:45.062Z,30.44
2022-09-16T11:04:41.487Z,31.70
2022-09-16T11:07:18.154Z,31.40
2022-09-16T11:09:54.084Z,30.43
2022-09-16T11:12:37.786Z,29.14
2022-09-16T11:15:14.247Z,28.20
2022-09-16T11:17:53.416Z,30.48
2022-09-16T11:20:42.095Z,32.81
2022-09-16T11:23:19.022Z,32.95
2022-09-16T11:25:52.898Z,31.61
2022-09-16T11:28:45.380Z,30.82
2022-09-16T11:31:22.173Z,30.94
2022-09-16T11:33:56.767Z,32.20
2022-09-16T11:36:37.546Z,33.85
2022-09-16T11:39:16.670Z,33.83
2022-09-16T11:41:50.350Z,32.23
2022-09-16T11:44:33.923Z,30.47
2022-09-16T11:47:16.284Z,28.85
2022-09-16T11:49:53.573Z,27.56
2022-09-16T11:52:34.512Z,26.99
2022-09-16T11:55:31.160Z,27.00
2022-09-16T11:58:05.186Z,26.96
2022-09-16T12:00:35.330Z,26.70
2022-09-16T12:03:07.518Z,26.67
2022-09-16T12:05:42.159Z,26.63
2022-09-16T12:08:14.233Z,26.65
2022-09-16T12:10:47.030Z,26.55
2022-09-16T12:13:20.123Z,26.46
2022-09-16T12:15:50.850Z,26.20
2022-09-16T12:18:19.963Z,26.91
2022-09-16T12:20:51.937Z,26.35
2022-09-16T12:23:22.599Z,26.28
2022-09-16T12:26:02.078Z,26.40
2022-09-16T12:28:35.058Z,26.10
2022-09-16T12:31:08.494Z,25.83
2022-09-16T12:33:41.847Z,25.68
2022-09-16T12:36:12.723Z,25.33
2022-09-16T12:38:41.377Z,24.82
2022-09-16T12:41:31.578Z,24.92
2022-09-16T12:44:34.407Z,24.64
2022-09-16T12:47:23.814Z,24.35
2022-09-16T12:50:40.083Z,24.36
2022-09-16T12:53:41.918Z,24.06
2022-09-16T12:56:12.594Z,23.58
2022-09-16T12:59:20.039Z,23.96
2022-09-16T13:01:51.752Z,23.59
2022-09-16T13:04:22.564Z,23.28
2022-09-16T13:06:52.936Z,22.89
2022-09-16T13:09:23.672Z,22.75
2022-09-16T13:14:47.794Z,22.00
2022-09-16T13:17:29.351Z,21.98
2022-09-16T13:19:57.766Z,22.12
2022-09-16T13:22:30.522Z,21.65
2022-09-16T13:25:06.843Z,21.75
2022-09-16T13:27:37.368Z,21.76
2022-09-16T13:30:18.285Z,22.20
2022-09-16T13:33:00.311Z,22.18
2022-09-16T13:35:43.005Z,22.07
2022-09-16T13:38:41.630Z,21.90
2022-09-16T13:41:12.318Z,21.51
2022-09-16T13:43:53.141Z,21.60
2022-09-16T13:46:31.466Z,21.51
2022-09-16T13:49:13.160Z,21.40
2022-09-16T13:51:44.726Z,21.22
2022-09-16T13:54:23.279Z,21.59
2022-09-16T13:57:00.934Z,21.61
2022-09-16T13:59:42.549Z,21.79
2022-09-16T14:02:16.763Z,21.92
2022-09-16T14:05:00.161Z,22.37
2022-09-16T14:07:38.203Z,22.43
2022-09-16T14:10:11.612Z,22.05
2022-09-16T14:12:47.411Z,21.56
2022-09-16T14:15:16.384Z,20.69
2022-09-16T14:17:51.010Z,20.41
2022-09-16T14:20:22.692Z,20.27
2022-09-16T14:23:01.553Z,20.41
2022-09-16T14:25:32.415Z,20.47
2022-09-16T14:28:11.036Z,21.24
2022-09-16T14:30:46.713Z,21.36
2022-09-16T14:33:16.257Z,21.43
2022-09-16T14:35:48.411Z,21.71
2022-09-16T14:38:43.816Z,21.83
2022-09-16T14:41:08.371Z,21.80
2022-09-16T14:43:38.666Z,21.89
2022-09-16T14:46:08.630Z,21.82
2022-09-16T14:48:39.625Z,21.67
2022-09-16T14:51:22.285Z,21.96
2022-09-16T14:54:13.777Z,21.93
2022-09-16T14:56:42.083Z,21.52
2022-09-16T14:59:12.496Z,21.86
2022-09-16T15:01:41.382Z,21.58
2022-09-16T15:04:12.376Z,21.59
2022-09-16T15:06:45.183Z,21.61
2022-09-16T15:09:18.904Z,21.47
2022-09-16T15:11:56.515Z,21.48
2022-09-16T15:14:25.037Z,21.01
2022-09-16T15:16:56.985Z,21.23
2022-09-16T15:19:27.054Z,20.98
2022-09-16T15:21:57.487Z,20.97
2022-09-16T15:24:31.265Z,20.86
2022-09-16T15:26:59.861Z,20.40
2022-09-16T15:29:34.066Z,20.60
2022-09-16T15:32:19.643Z,20.61
2022-09-16T15:34:48.137Z,19.90
2022-09-16T15:37:35.961Z,20.64
2022-09-16T15:40:23.473Z,20.65
2022-09-16T15:43:04.019Z,20.60
2022-09-16T15:45:32.993Z,20.17
2022-09-16T15:48:03.891Z,20.10
2022-09-16T15:50:40.129Z,20.38
2022-09-16T15:53:12.951Z,20.29
2022-09-16T15:55:44.289Z,20.23
2022-09-16T15:58:14.922Z,20.15
2022-09-16T16:01:02.684Z,20.48
2022-09-16T16:03:33.906Z,20.15
2022-09-16T16:06:05.123Z,19.82
2022-09-16T16:08:43.291Z,20.72
2022-09-16T16:11:13.817Z,20.00
2022-09-16T16:13:42.498Z,19.79
2022-09-16T16:16:11.625Z,19.78
2022-09-16T16:18:40.179Z,19.68
2022-09-16T16:21:09.535Z,19.63
2022-09-16T16:23:38.199Z,19.51
2022-09-16T16:26:10.024Z,19.64
2022-09-16T16:28:39.162Z,19.18
2022-09-16T16:31:13.743Z,19.55
2022-09-16T16:33:45.259Z,19.22
2022-09-16T16:36:15.306Z,19.15
2022-09-16T16:38:43.950Z,18.98
2022-09-16T16:41:20.603Z,19.41
2022-09-16T16:43:49.079Z,18.90
2022-09-16T16:46:18.406Z,18.99
2022-09-16T16:48:47.564Z,18.81
2022-09-16T16:51:16.314Z,18.77
2022-09-16T16:53:48.871Z,19.14
2022-09-16T16:56:19.058Z,18.99
2022-09-16T16:58:47.603Z,18.69
2022-09-16T17:01:17.563Z,18.77
2022-09-16T17:03:49.314Z,18.61
2022-09-16T17:06:18.570Z,18.51
2022-09-16T17:08:47.304Z,18.44
2022-09-16T17:11:19.891Z,18.68
2022-09-16T17:13:51.036Z,18.75
2022-09-16T17:16:21.481Z,18.69
2022-09-16T17:18:50.262Z,18.36
2022-09-16T17:21:20.433Z,18.57
2022-09-16T17:23:49.208Z,18.29
2022-09-16T17:26:19.541Z,18.14
2022-09-16T17:28:51.713Z,18.24
2022-09-16T17:31:22.495Z,18.27
2022-09-16T17:33:51.474Z,18.07
2022-09-16T17:36:22.491Z,18.03
2022-09-16T17:38:56.561Z,18.30
2022-09-16T17:41:27.976Z,17.98
2022-09-16T17:43:57.800Z,17.76
2022-09-16T17:46:28.977Z,17.79
2022-09-16T17:49:00.978Z,17.87
2022-09-16T17:51:31.689Z,17.73
2022-09-16T17:54:00.349Z,17.34
2022-09-16T17:56:30.263Z,17.67
2022-09-16T17:58:58.708Z,17.24
2022-09-16T18:01:28.556Z,17.40
2022-09-16T18:03:57.538Z,17.14
2022-09-16T18:06:28.604Z,17.38
2022-09-16T18:08:57.437Z,17.05
2022-09-16T18:11:26.023Z,17.00
2022-09-16T18:13:57.633Z,17.45
2022-09-16T18:16:27.295Z,17.06
2022-09-16T18:18:57.777Z,17.16
2022-09-16T18:21:27.214Z,17.07
2022-09-16T18:23:57.508Z,17.09
2022-09-16T18:26:27.020Z,17.11
2022-09-16T18:29:17.921Z,17.19
2022-09-16T18:31:47.957Z,17.04
2022-09-16T18:34:17.393Z,16.96
2022-09-16T18:36:45.930Z,16.89
2022-09-16T18:39:15.397Z,17.03
2022-09-16T18:41:45.308Z,17.03
2022-09-16T18:44:16.722Z,17.19
2022-09-16T18:46:45.173Z,16.78
2022-09-16T18:49:15.005Z,17.08
2022-09-16T18:51:49.812Z,17.16
2022-09-16T18:54:24.886Z,17.16
2022-09-16T18:56:55.914Z,17.00
2022-09-16T18:59:28.710Z,17.35
2022-09-16T19:01:59.501Z,17.33
2022-09-16T19:04:29.093Z,17.22
2022-09-16T19:06:59.350Z,17.08
2022-09-16T19:09:27.719Z,16.90
2022-09-16T19:11:56.309Z,16.88
2022-09-16T19:14:27.588Z,17.22
2022-09-16T19:16:56.223Z,16.85
2022-09-16T19:19:24.625Z,16.65
2022-09-16T19:21:52.806Z,16.55
2022-09-16T19:24:23.098Z,16.69
2022-09-16T19:26:53.059Z,16.53
2022-09-16T19:29:21.977Z,16.35
2022-09-16T19:31:53.071Z,16.55
2022-09-16T19:34:22.240Z,16.22
2022-09-16T19:36:50.763Z,16.06
2022-09-16T19:39:19.084Z,15.92
2022-09-16T19:41:47.290Z,15.92
2022-09-16T19:44:17.243Z,16.11
2022-09-16T19:46:49.193Z,15.92
2022-09-16T19:49:20.932Z,16.36
2022-09-16T19:51:49.888Z,16.16
2022-09-16T19:54:18.511Z,15.97
2022-09-16T19:56:50.765Z,16.14
2022-09-16T19:59:20.139Z,16.07
2022-09-16T20:01:48.819Z,16.02
2022-09-16T20:04:19.825Z,16.01
2022-09-16T20:06:49.900Z,17.03
2022-09-16T20:09:18.405Z,16.12
2022-09-16T20:11:47.812Z,16.19
2022-09-16T20:14:18.831Z,16.19
2022-09-16T20:16:47.625Z,16.05
2022-09-16T20:19:16.954Z,16.13
2022-09-16T20:21:45.499Z,15.80
2022-09-16T20:24:18.460Z,16.13
2022-09-16T20:26:47.551Z,15.74
2022-09-16T20:29:17.348Z,15.69
2022-09-16T20:31:46.136Z,15.61
2022-09-16T20:34:16.273Z,15.73
2022-09-16T20:36:46.037Z,15.86
2022-09-16T20:39:15.923Z,15.78
2022-09-16T20:41:45.812Z,15.51
2022-09-16T20:44:15.811Z,15.55
2022-09-16T20:46:44.674Z,15.31
2022-09-16T20:49:16.212Z,15.56
2022-09-16T20:51:45.271Z,15.22
2022-09-16T20:54:16.235Z,15.28
2022-09-16T20:56:45.900Z,15.31
2022-09-16T20:59:16.491Z,15.23
2022-09-16T21:01:44.953Z,15.14
2022-09-16T21:04:14.889Z,15.22
2022-09-16T21:06:43.453Z,14.93
2022-09-16T21:09:13.617Z,15.23
2022-09-16T21:11:45.247Z,15.20
2022-09-16T21:14:16.426Z,15.08
2022-09-16T21:16:47.227Z,14.92
2022-09-16T21:19:16.769Z,14.85
2022-09-16T21:21:46.535Z,14.81
2022-09-16T21:24:15.078Z,14.73
2022-09-16T21:26:46.224Z,15.04
2022-09-16T21:29:21.021Z,14.83
2022-09-16T21:31:50.157Z,14.62
2022-09-16T21:34:20.203Z,14.93
2022-09-16T21:36:49.180Z,14.72
2022-09-16T21:39:19.637Z,14.83
2022-09-16T21:41:49.823Z,14.91
2022-09-16T21:44:18.880Z,14.61
2022-09-16T21:46:47.897Z,14.65
2022-09-16T21:49:22.717Z,14.71
2022-09-16T21:51:52.513Z,14.69
2022-09-16T21:54:21.665Z,14.53
2022-09-16T21:56:51.843Z,14.70
2022-09-16T21:59:20.993Z,14.49
2022-09-16T22:01:50.159Z,14.34
2022-09-16T22:04:19.933Z,14.49
2022-09-16T22:06:49.373Z,14.24
2022-09-16T22:09:17.822Z,14.28
2022-09-16T22:11:46.145Z,14.10
2022-09-16T22:14:16.330Z,14.40
2022-09-16T22:16:44.533Z,14.14
2022-09-16T22:19:14.706Z,14.30
2022-09-16T22:21:44.520Z,14.20
2022-09-16T22:24:13.011Z,14.00
2022-09-16T22:26:41.481Z,13.86
2022-09-16T22:29:09.841Z,13.85
2022-09-16T22:31:41.528Z,14.22
2022-09-16T22:34:10.149Z,13.89
2022-09-16T22:36:39.150Z,13.98
2022-09-16T22:39:08.803Z,14.04
2022-09-16T22:41:36.940Z,13.84
2022-09-16T22:44:06.058Z,13.97
2022-09-16T22:46:36.370Z,14.09
2022-09-16T22:49:05.843Z,14.13
2022-09-16T22:51:34.225Z,13.75
2022-09-16T22:54:02.307Z,13.77
2022-09-16T22:56:33.641Z,14.06
2022-09-16T22:59:02.216Z,14.69
2022-09-16T23:01:32.997Z,14.03
2022-09-16T23:04:02.769Z,14.05
2022-09-16T23:06:33.496Z,14.10
2022-09-16T23:09:01.913Z,13.76
2022-09-16T23:11:32.793Z,14.13
2022-09-16T23:14:02.020Z,13.90
2022-09-16T23:16:31.766Z,14.03
2022-09-16T23:19:01.491Z,13.98
2022-09-16T23:21:32.481Z,13.82
2022-09-16T23:24:02.121Z,14.03
2022-09-16T23:26:32.747Z,13.98
2022-09-16T23:29:02.894Z,14.02
2022-09-16T23:31:33.576Z,13.98
2022-09-16T23:34:01.891Z,13.65
2022-09-16T23:36:30.049Z,13.60
2022-09-16T23:39:01.868Z,13.99
2022-09-16T23:41:29.966Z,13.68
2022-09-16T23:43:58.188Z,13.56
2022-09-16T23:46:28.880Z,13.81
2022-09-16T23:48:57.147Z,13.64
2022-09-16T23:51:28.501Z,13.82
2022-09-16T23:53:59.348Z,13.69
2022-09-16T23:56:28.075Z,13.65
2022-09-16T23:59:00.811Z,13.95
